Weather History for KVVV - May, 2014

Change the Weather History Date:

Monday, May 19, 2014

  Actual Average (KATY) Record (KATY)
Temperature  
Mean Temperature 62 °F 57 °F  
Max Temperature 71 °F 68 °F 94 °F (2009)
Min Temperature 53 °F 46 °F 28 °F (2002)
Degree Days  
Heating Degree Days 3 9  
Month to date heating degree days 213  
Since 1 July heating degree days 8364  
Cooling Degree Days 0 1  
Month to date cooling degree days 8  
Year to date cooling degree days 10  
Growing Degree Days 12 (Base 50)    
Moisture  
Dew Point 50 °F    
Average Humidity 66    
Maximum Humidity 94    
Minimum Humidity 39    
Precipitation  
Precipitation 0.12 in 0.08 in 1.00 in (1918)
Month to date precipitation 1.54  
Year to date precipitation 5.75  
Sea Level Pressure  
Sea Level Pressure 29.70 in    
Wind  
Wind Speed 16 mph (SE)    
Max Wind Speed 24 mph    
Max Gust Speed 32 mph    
Visibility 10 miles    
Events Rain , Thunderstorm    
T = Trace of Precipitation, MM = Missing Value Source: NWS Daily Summary

Daily Weather History Graph

Daily Weather History Graph

Search for Another Location

Airport or City:

Trip Planner

Search our weather history database for the weather conditions in past years. The results will help you decide how hot, cold, wet, or windy it might be!

Date:

Astronomy

May. 19, 2014 Rise Set
Actual Time 5:51 AM CDT 8:53 PM CDT
Civil Twilight 5:16 AM CDT 9:28 PM CDT
Nautical Twilight 4:31 AM CDT 10:13 PM CDT
Astronomical Twilight 3:37 AM CDT 11:08 PM CDT
Moon 12:38 AM CDT (5/19) 10:54 AM CDT (5/19)
Length of Visible Light 16h 12m
Length of Day
15h 02m
Waning Gibbous, 71% of the Moon is Illuminated
May 19
Waning Gibbous
May 21
Last Quarter
May 28
New
Jun 5
First Quarter
Jun 12
Full

Hourly Weather History & Observations

Time (CDT) Temp. Dew Point Humidity Pressure Visibility Wind Dir Wind Speed Gust Speed Precip Events Conditions
12:14 AM 62.6 °F 39.2 °F 42% 29.85 in 10.0 mi SE 15.0 mph - N/A   Overcast
12:34 AM 62.6 °F 39.2 °F 42% 29.85 in 10.0 mi SE 15.0 mph - N/A   Overcast
12:53 AM 62.6 °F 37.4 °F 39% 29.85 in 10.0 mi SE 12.7 mph 21.9 mph N/A   Overcast
1:14 AM 62.6 °F 39.2 °F 42% 29.85 in 10.0 mi SE 15.0 mph 21.9 mph N/A   Overcast
1:34 AM 62.6 °F 39.2 °F 42% 29.84 in 10.0 mi SE 15.0 mph - N/A   Overcast
1:53 AM 62.6 °F 39.2 °F 42% 29.83 in 10.0 mi SE 15.0 mph - N/A   Overcast
2:14 AM 60.8 °F 39.2 °F 45% 29.82 in 10.0 mi SE 16.1 mph - N/A   Overcast
2:34 AM 60.8 °F 39.2 °F 45% 29.80 in 10.0 mi SE 13.8 mph 21.9 mph N/A   Overcast
2:53 AM 60.8 °F 39.2 °F 45% 29.79 in 10.0 mi SE 17.3 mph - N/A   Overcast
3:14 AM 60.8 °F 39.2 °F 45% 29.78 in 10.0 mi SE 17.3 mph - N/A   Mostly Cloudy
3:34 AM 60.8 °F 39.2 °F 45% 29.77 in 10.0 mi SE 16.1 mph 21.9 mph N/A   Scattered Clouds
3:54 AM 60.8 °F 41.0 °F 48% 29.75 in 10.0 mi SE 16.1 mph 24.2 mph N/A   Scattered Clouds
4:12 AM 60.8 °F 41.0 °F 48% 29.73 in 10.0 mi SE 17.3 mph - N/A   Mostly Cloudy
4:33 AM 59.0 °F 41.0 °F 51% 29.72 in 10.0 mi SE 18.4 mph 24.2 mph N/A Thunderstorm Thunderstorm
4:54 AM 59.0 °F 41.0 °F 51% 29.70 in 10.0 mi SE 18.4 mph 23.0 mph N/A   Clear
5:14 AM 59.0 °F 42.8 °F 55% 29.70 in 10.0 mi SE 19.6 mph 25.3 mph N/A   Scattered Clouds
5:33 AM 59.0 °F 42.8 °F 55% 29.71 in 10.0 mi ESE 19.6 mph 26.5 mph N/A Thunderstorm Thunderstorm
5:54 AM 57.2 °F 44.6 °F 63% 29.74 in 10.0 mi ESE 23.0 mph - 0.01 in Rain , Thunderstorm Light Thunderstorms and Rain
6:14 AM 57.2 °F 44.6 °F 63% 29.73 in 10.0 mi SE 16.1 mph 24.2 mph N/A Thunderstorm Thunderstorm
6:34 AM 57.2 °F 44.6 °F 63% 29.72 in 10.0 mi SE 16.1 mph 23.0 mph N/A Thunderstorm Overcast
6:54 AM 57.2 °F 44.6 °F 63% 29.70 in 10.0 mi SE 18.4 mph 24.2 mph N/A Thunderstorm Overcast
7:14 AM 53.6 °F 48.2 °F 82% 29.71 in 7.0 mi SE 16.1 mph 20.7 mph 0.11 in Rain , Thunderstorm Light Thunderstorms and Rain
7:34 AM 55.4 °F 48.2 °F 77% 29.70 in 10.0 mi ESE 17.3 mph - 0.11 in Rain Light Rain
8:34 AM 55.4 °F 48.2 °F 77% 29.68 in 10.0 mi ESE 17.3 mph 25.3 mph N/A   Mostly Cloudy
8:54 AM 55.4 °F 48.2 °F 77% 29.70 in 10.0 mi ESE 13.8 mph 26.5 mph N/A   Scattered Clouds
9:54 AM 55.4 °F 48.2 °F 77% 29.70 in 10.0 mi ESE 15.0 mph 23.0 mph N/A   Overcast
10:14 AM 55.4 °F 48.2 °F 77% 29.70 in 10.0 mi ESE 18.4 mph - N/A   Overcast
10:34 AM 57.2 °F 50.0 °F 77% 29.69 in 10.0 mi ESE 16.1 mph 23.0 mph N/A   Overcast
10:53 AM 57.2 °F 50.0 °F 77% 29.68 in 10.0 mi ESE 15.0 mph 20.7 mph N/A   Overcast
11:14 AM 59.0 °F 50.0 °F 72% 29.68 in 10.0 mi SE 19.6 mph 24.2 mph N/A   Overcast
11:33 AM 60.8 °F 51.8 °F 72% 29.67 in 10.0 mi SE 15.0 mph 24.2 mph N/A   Overcast
11:54 AM 60.8 °F 51.8 °F 72% 29.67 in 10.0 mi ESE 16.1 mph - N/A   Overcast
12:14 PM 62.6 °F 53.6 °F 72% 29.66 in 10.0 mi SE 20.7 mph 24.2 mph N/A   Mostly Cloudy
12:33 PM 62.6 °F 53.6 °F 72% 29.65 in 10.0 mi SE 19.6 mph 26.5 mph N/A   Overcast
1:14 PM 66.2 °F 55.4 °F 68% 29.64 in 10.0 mi SE 21.9 mph 26.5 mph N/A   Scattered Clouds
1:33 PM 66.2 °F 55.4 °F 68% 29.64 in 10.0 mi SE 20.7 mph 29.9 mph N/A   Scattered Clouds
1:54 PM 66.2 °F 55.4 °F 68% 29.64 in 10.0 mi SE 20.7 mph 29.9 mph N/A   Scattered Clouds
2:14 PM 68.0 °F 55.4 °F 64% 29.64 in 10.0 mi SE 20.7 mph 28.8 mph N/A   Scattered Clouds
2:34 PM 68.0 °F 55.4 °F 64% 29.63 in 10.0 mi SE 24.2 mph 32.2 mph N/A   Clear
2:54 PM 68.0 °F 55.4 °F 64% 29.63 in 10.0 mi SE 18.4 mph 29.9 mph N/A   Clear
3:13 PM 69.8 °F 55.4 °F 60% 29.64 in 10.0 mi SSE 16.1 mph 28.8 mph N/A   Clear
3:34 PM 68.0 °F 55.4 °F 64% 29.64 in 10.0 mi SSE 15.0 mph 23.0 mph N/A   Clear
3:54 PM 71.6 °F 57.2 °F 60% 29.64 in 10.0 mi SE 18.4 mph 24.2 mph N/A   Clear
4:13 PM 69.8 °F 57.2 °F 64% 29.63 in 10.0 mi SSE 11.5 mph 20.7 mph N/A   Clear
4:34 PM 69.8 °F 55.4 °F 60% 29.64 in 10.0 mi SE 18.4 mph 24.2 mph N/A   Scattered Clouds
4:54 PM 69.8 °F 57.2 °F 64% 29.64 in 10.0 mi SE 17.3 mph 25.3 mph N/A   Mostly Cloudy
5:13 PM 66.2 °F 55.4 °F 68% 29.64 in 10.0 mi SE 17.3 mph - N/A   Scattered Clouds
5:54 PM 66.2 °F 57.2 °F 73% 29.64 in 10.0 mi SE 18.4 mph 24.2 mph N/A   Clear
6:13 PM 66.2 °F 57.2 °F 73% 29.64 in 10.0 mi SE 13.8 mph - N/A   Clear
6:34 PM 68.0 °F 57.2 °F 68% 29.64 in 10.0 mi SE 13.8 mph 19.6 mph N/A   Clear
6:54 PM 69.8 °F 57.2 °F 64% 29.64 in 10.0 mi SE 16.1 mph 21.9 mph N/A   Clear
7:13 PM 68.0 °F 57.2 °F 68% 29.65 in 10.0 mi SE 13.8 mph 19.6 mph N/A   Clear
7:34 PM 68.0 °F 57.2 °F 68% 29.65 in 10.0 mi SSE 11.5 mph 18.4 mph N/A   Clear
7:53 PM 66.2 °F 57.2 °F 73% 29.65 in 10.0 mi SE 15.0 mph - N/A   Clear
8:14 PM 66.2 °F 57.2 °F 73% 29.65 in 10.0 mi SE 11.5 mph - N/A   Clear
8:34 PM 64.4 °F 57.2 °F 77% 29.65 in 10.0 mi SE 10.4 mph - N/A   Clear
8:53 PM 64.4 °F 57.2 °F 77% 29.64 in 10.0 mi SE 13.8 mph - N/A   Clear
9:14 PM 64.4 °F 57.2 °F 77% 29.66 in 10.0 mi SE 11.5 mph - N/A   Clear
9:34 PM 62.6 °F 57.2 °F 82% 29.67 in 7.0 mi ESE 9.2 mph - N/A   Clear
9:53 PM 62.6 °F 57.2 °F 82% 29.68 in 7.0 mi ESE 8.1 mph - N/A   Clear
10:14 PM 60.8 °F 57.2 °F 88% 29.69 in 7.0 mi SE 8.1 mph - N/A   Clear
10:34 PM 60.8 °F 57.2 °F 88% 29.70 in 7.0 mi Calm Calm - N/A   Clear
10:53 PM 60.8 °F 55.4 °F 82% 29.70 in 7.0 mi SE 6.9 mph - N/A   Clear
11:14 PM 59.0 °F 55.4 °F 88% 29.71 in 5.0 mi SE 3.5 mph - N/A   Clear
11:33 PM 57.2 °F 55.4 °F 94% 29.71 in 5.0 mi SE 3.5 mph - N/A   Clear
11:54 PM 57.2 °F 53.6 °F 88% 29.72 in 3.0 mi Calm Calm - N/A   Clear